Terminal Aerodrome Forecast
Issued by NWS Tulsa, OK

Home | Current Version | Previous Version | Text Only | Print | Product List | Glossary On
Versions: 1 2 3 4 5 6 7 8 9 10 11 12 13 14
877
FTUS44 KTSA 301734
TAFTUL
TAF
KTUL 301734Z 3018/3118 VRB05KT P6SM SCT035 SCT050
     FM310100 VRB04KT P6SM SCT080
     FM311200 03004KT P6SM BKN040 BKN250
     FM311600 01005KT P6SM SCT035 BKN180=

USA.gov is the U.S. government's official web portal to all federal, state and local government web resources and services.